sensor_id;sensor_type;location;lat;lon;timestamp;pressure;altitude;pressure_sealevel;temperature;humidity
59170;BME280;52474;52.236;5.114;2023-07-22T00:01:23;101452.50;;;13.31;100.00
59170;BME280;52474;52.236;5.114;2023-07-22T00:03:49;101433.53;;;13.15;100.00
59170;BME280;52474;52.236;5.114;2023-07-22T00:06:15;101454.13;;;13.22;100.00
59170;BME280;52474;52.236;5.114;2023-07-22T00:08:40;101445.56;;;13.19;100.00
59170;BME280;52474;52.236;5.114;2023-07-22T00:11:07;101448.28;;;13.28;100.00
59170;BME280;52474;52.236;5.114;2023-07-22T00:13:33;101451.59;;;13.21;100.00
59170;BME280;52474;52.236;5.114;2023-07-22T00:16:00;101428.00;;;13.06;100.00
59170;BME280;52474;52.236;5.114;2023-07-22T00:18:27;101442.06;;;13.18;100.00
59170;BME280;52474;52.236;5.114;2023-07-22T00:20:54;101437.41;;;13.10;100.00
59170;BME280;52474;52.236;5.114;2023-07-22T00:23:20;101430.94;;;13.03;100.00
59170;BME280;52474;52.236;5.114;2023-07-22T00:25:46;101428.72;;;13.08;100.00
59170;BME280;52474;52.236;5.114;2023-07-22T00:28:12;101430.41;;;13.09;100.00
59170;BME280;52474;52.236;5.114;2023-07-22T00:30:38;101432.63;;;13.04;100.00
59170;BME280;52474;52.236;5.114;2023-07-22T00:33:04;101433.09;;;13.09;100.00
59170;BME280;52474;52.236;5.114;2023-07-22T00:35:30;101431.38;;;13.08;100.00
59170;BME280;52474;52.236;5.114;2023-07-22T00:37:57;101435.47;;;13.13;100.00
59170;BME280;52474;52.236;5.114;2023-07-22T00:40:23;101439.28;;;13.20;100.00
59170;BME280;52474;52.236;5.114;2023-07-22T00:42:49;101431.41;;;13.18;100.00
59170;BME280;52474;52.236;5.114;2023-07-22T00:45:15;101436.47;;;13.21;100.00
59170;BME280;52474;52.236;5.114;2023-07-22T00:47:41;101413.59;;;13.09;100.00
59170;BME280;52474;52.236;5.114;2023-07-22T00:50:08;101410.53;;;13.14;100.00
59170;BME280;52474;52.236;5.114;2023-07-22T00:52:34;101424.72;;;13.24;100.00
59170;BME280;52474;52.236;5.114;2023-07-22T00:55:01;101422.22;;;13.22;100.00
59170;BME280;52474;52.236;5.114;2023-07-22T00:57:29;101413.41;;;13.22;100.00
59170;BME280;52474;52.236;5.114;2023-07-22T00:59:55;101421.09;;;13.25;100.00
59170;BME280;52474;52.236;5.114;2023-07-22T01:02:21;101422.78;;;13.26;100.00
59170;BME280;52474;52.236;5.114;2023-07-22T01:04:49;101413.13;;;13.25;100.00
59170;BME280;52474;52.236;5.114;2023-07-22T01:07:15;101404.91;;;13.28;100.00
59170;BME280;52474;52.236;5.114;2023-07-22T01:09:42;101417.78;;;13.32;100.00
59170;BME280;52474;52.236;5.114;2023-07-22T01:12:09;101414.03;;;13.35;100.00
59170;BME280;52474;52.236;5.114;2023-07-22T01:14:36;101390.81;;;13.16;100.00
59170;BME280;52474;52.236;5.114;2023-07-22T01:17:02;101403.50;;;13.34;100.00
59170;BME280;52474;52.236;5.114;2023-07-22T01:19:29;101400.66;;;13.25;100.00
59170;BME280;52474;52.236;5.114;2023-07-22T01:21:57;101406.16;;;13.34;100.00
59170;BME280;52474;52.236;5.114;2023-07-22T01:24:24;101393.16;;;13.30;100.00
59170;BME280;52474;52.236;5.114;2023-07-22T01:26:51;101396.53;;;13.11;100.00
59170;BME280;52474;52.236;5.114;2023-07-22T01:29:17;101397.47;;;13.01;100.00
59170;BME280;52474;52.236;5.114;2023-07-22T01:31:46;101378.38;;;12.86;100.00
59170;BME280;52474;52.236;5.114;2023-07-22T01:34:12;101399.13;;;12.92;100.00
59170;BME280;52474;52.236;5.114;2023-07-22T01:36:38;101401.59;;;12.84;100.00
59170;BME280;52474;52.236;5.114;2023-07-22T01:39:04;101387.03;;;12.78;100.00
59170;BME280;52474;52.236;5.114;2023-07-22T01:41:31;101375.75;;;12.65;100.00
59170;BME280;52474;52.236;5.114;2023-07-22T01:43:57;101391.41;;;12.89;100.00
59170;BME280;52474;52.236;5.114;2023-07-22T01:46:22;101393.81;;;12.92;100.00
59170;BME280;52474;52.236;5.114;2023-07-22T01:48:48;101392.50;;;12.86;100.00
59170;BME280;52474;52.236;5.114;2023-07-22T01:51:14;101386.19;;;12.78;100.00
59170;BME280;52474;52.236;5.114;2023-07-22T01:53:40;101376.63;;;12.65;100.00
59170;BME280;52474;52.236;5.114;2023-07-22T01:56:05;101379.38;;;12.64;100.00
59170;BME280;52474;52.236;5.114;2023-07-22T01:58:31;101366.69;;;12.67;100.00
59170;BME280;52474;52.236;5.114;2023-07-22T02:00:57;101384.31;;;12.68;100.00
59170;BME280;52474;52.236;5.114;2023-07-22T02:03:23;101385.38;;;12.56;100.00
59170;BME280;52474;52.236;5.114;2023-07-22T02:05:49;101380.72;;;12.49;100.00
59170;BME280;52474;52.236;5.114;2023-07-22T02:08:14;101385.56;;;12.43;100.00
59170;BME280;52474;52.236;5.114;2023-07-22T02:10:40;101356.41;;;12.32;100.00
59170;BME280;52474;52.236;5.114;2023-07-22T02:13:05;101381.09;;;12.44;100.00
59170;BME280;52474;52.236;5.114;2023-07-22T02:15:34;101376.16;;;12.39;100.00
59170;BME280;52474;52.236;5.114;2023-07-22T02:18:00;101372.56;;;12.40;100.00
59170;BME280;52474;52.236;5.114;2023-07-22T02:20:26;101375.78;;;12.44;100.00
59170;BME280;52474;52.236;5.114;2023-07-22T02:22:54;101377.00;;;12.40;100.00
59170;BME280;52474;52.236;5.114;2023-07-22T02:25:20;101353.19;;;12.29;100.00
59170;BME280;52474;52.236;5.114;2023-07-22T02:27:46;101368.19;;;12.39;100.00
59170;BME280;52474;52.236;5.114;2023-07-22T02:30:12;101367.63;;;12.36;100.00
59170;BME280;52474;52.236;5.114;2023-07-22T02:32:39;101361.06;;;12.40;100.00
59170;BME280;52474;52.236;5.114;2023-07-22T02:35:08;101360.66;;;12.44;100.00
59170;BME280;52474;52.236;5.114;2023-07-22T02:37:37;101356.06;;;12.46;100.00
59170;BME280;52474;52.236;5.114;2023-07-22T02:40:03;101354.13;;;12.49;100.00
59170;BME280;52474;52.236;5.114;2023-07-22T02:42:39;101331.84;;;12.40;100.00
59170;BME280;52474;52.236;5.114;2023-07-22T02:45:05;101353.03;;;12.51;100.00
59170;BME280;52474;52.236;5.114;2023-07-22T02:47:33;101334.31;;;12.32;100.00
59170;BME280;52474;52.236;5.114;2023-07-22T02:50:00;101349.59;;;12.39;100.00
59170;BME280;52474;52.236;5.114;2023-07-22T02:52:25;101348.00;;;12.48;100.00
59170;BME280;52474;52.236;5.114;2023-07-22T02:55:23;101352.50;;;12.57;100.00
59170;BME280;52474;52.236;5.114;2023-07-22T02:57:49;101357.56;;;12.60;100.00
59170;BME280;52474;52.236;5.114;2023-07-22T03:00:17;101333.00;;;12.47;100.00
59170;BME280;52474;52.236;5.114;2023-07-22T03:02:53;101329.91;;;12.42;100.00
59170;BME280;52474;52.236;5.114;2023-07-22T03:05:19;101340.97;;;12.47;100.00
59170;BME280;52474;52.236;5.114;2023-07-22T03:07:45;101359.06;;;12.53;100.00
59170;BME280;52474;52.236;5.114;2023-07-22T03:10:11;101360.47;;;12.57;100.00
59170;BME280;52474;52.236;5.114;2023-07-22T03:12:37;101334.31;;;12.32;100.00
59170;BME280;52474;52.236;5.114;2023-07-22T03:15:03;101360.28;;;12.49;100.00
59170;BME280;52474;52.236;5.114;2023-07-22T03:17:34;101360.00;;;12.52;100.00
59170;BME280;52474;52.236;5.114;2023-07-22T03:20:01;101349.66;;;12.49;100.00
59170;BME280;52474;52.236;5.114;2023-07-22T03:22:30;101367.75;;;12.55;100.00
59170;BME280;52474;52.236;5.114;2023-07-22T03:24:56;101365.31;;;12.52;100.00
59170;BME280;52474;52.236;5.114;2023-07-22T03:27:22;101359.78;;;12.55;100.00
59170;BME280;52474;52.236;5.114;2023-07-22T03:29:48;101347.13;;;12.48;100.00
59170;BME280;52474;52.236;5.114;2023-07-22T03:32:13;101349.97;;;12.56;100.00
59170;BME280;52474;52.236;5.114;2023-07-22T03:34:39;101353.16;;;12.50;100.00
59170;BME280;52474;52.236;5.114;2023-07-22T03:37:05;101356.78;;;12.49;100.00
59170;BME280;52474;52.236;5.114;2023-07-22T03:39:31;101355.50;;;12.43;100.00
59170;BME280;52474;52.236;5.114;2023-07-22T03:41:56;101371.84;;;12.38;100.00
59170;BME280;52474;52.236;5.114;2023-07-22T03:44:22;101361.34;;;12.37;100.00
59170;BME280;52474;52.236;5.114;2023-07-22T03:46:48;101364.38;;;12.32;100.00
59170;BME280;52474;52.236;5.114;2023-07-22T03:49:13;101365.19;;;12.33;100.00
59170;BME280;52474;52.236;5.114;2023-07-22T03:51:39;101358.28;;;12.20;100.00
59170;BME280;52474;52.236;5.114;2023-07-22T03:54:05;101380.69;;;12.28;100.00
59170;BME280;52474;52.236;5.114;2023-07-22T03:56:30;101370.66;;;12.31;100.00
59170;BME280;52474;52.236;5.114;2023-07-22T03:58:57;101376.28;;;12.38;100.00
59170;BME280;52474;52.236;5.114;2023-07-22T04:01:22;101368.19;;;12.39;100.00
59170;BME280;52474;52.236;5.114;2023-07-22T04:03:48;101366.97;;;12.43;100.00
59170;BME280;52474;52.236;5.114;2023-07-22T04:06:13;101368.81;;;12.53;100.00
59170;BME280;52474;52.236;5.114;2023-07-22T04:08:42;101372.34;;;12.53;100.00
59170;BME280;52474;52.236;5.114;2023-07-22T04:11:08;101377.00;;;12.61;100.00
59170;BME280;52474;52.236;5.114;2023-07-22T04:13:33;101380.50;;;12.61;100.00
59170;BME280;52474;52.236;5.114;2023-07-22T04:15:59;101376.84;;;12.62;100.00
59170;BME280;52474;52.236;5.114;2023-07-22T04:18:25;101376.34;;;12.68;100.00
59170;BME280;52474;52.236;5.114;2023-07-22T04:20:55;101370.03;;;12.70;100.00
59170;BME280;52474;52.236;5.114;2023-07-22T04:23:22;101350.81;;;12.56;100.00
59170;BME280;52474;52.236;5.114;2023-07-22T04:25:48;101374.69;;;12.77;100.00
59170;BME280;52474;52.236;5.114;2023-07-22T04:28:14;101367.59;;;12.78;100.00
59170;BME280;52474;52.236;5.114;2023-07-22T04:30:41;101374.91;;;12.85;100.00
59170;BME280;52474;52.236;5.114;2023-07-22T04:33:07;101373.63;;;12.89;100.00
59170;BME280;52474;52.236;5.114;2023-07-22T04:35:40;101375.88;;;12.94;100.00
59170;BME280;52474;52.236;5.114;2023-07-22T04:38:06;101374.38;;;13.01;100.00
59170;BME280;52474;52.236;5.114;2023-07-22T04:40:32;101349.69;;;12.89;100.00
59170;BME280;52474;52.236;5.114;2023-07-22T04:42:58;101361.25;;;13.00;100.00
59170;BME280;52474;52.236;5.114;2023-07-22T04:45:24;101361.72;;;13.15;100.00
59170;BME280;52474;52.236;5.114;2023-07-22T04:47:50;101346.84;;;13.02;100.00
59170;BME280;52474;52.236;5.114;2023-07-22T04:50:16;101372.50;;;13.23;100.00
59170;BME280;52474;52.236;5.114;2023-07-22T04:52:46;101366.41;;;13.32;100.00
59170;BME280;52474;52.236;5.114;2023-07-22T04:55:13;101343.81;;;13.26;100.00
59170;BME280;52474;52.236;5.114;2023-07-22T04:57:39;101358.88;;;13.47;100.00
59170;BME280;52474;52.236;5.114;2023-07-22T05:00:07;101355.97;;;13.60;100.00
59170;BME280;52474;52.236;5.114;2023-07-22T05:02:39;101362.97;;;13.70;100.00
59170;BME280;52474;52.236;5.114;2023-07-22T05:05:05;101355.69;;;13.72;100.00
59170;BME280;52474;52.236;5.114;2023-07-22T05:07:30;101343.50;;;13.70;100.00
59170;BME280;52474;52.236;5.114;2023-07-22T05:09:56;101354.44;;;13.86;100.00
59170;BME280;52474;52.236;5.114;2023-07-22T05:12:22;101356.81;;;13.89;100.00
59170;BME280;52474;52.236;5.114;2023-07-22T05:14:48;101335.50;;;13.80;100.00
59170;BME280;52474;52.236;5.114;2023-07-22T05:17:14;101361.84;;;13.92;100.00
59170;BME280;52474;52.236;5.114;2023-07-22T05:19:40;101358.22;;;14.03;100.00
59170;BME280;52474;52.236;5.114;2023-07-22T05:22:05;101354.16;;;14.09;100.00
59170;BME280;52474;52.236;5.114;2023-07-22T05:24:31;101353.56;;;14.15;100.00
59170;BME280;52474;52.236;5.114;2023-07-22T05:26:57;101327.81;;;14.06;100.00
59170;BME280;52474;52.236;5.114;2023-07-22T05:29:22;101356.81;;;14.28;100.00
59170;BME280;52474;52.236;5.114;2023-07-22T05:31:48;101357.06;;;14.35;100.00
59170;BME280;52474;52.236;5.114;2023-07-22T05:34:14;101365.72;;;14.47;100.00
59170;BME280;52474;52.236;5.114;2023-07-22T05:36:40;101359.84;;;14.53;100.00
59170;BME280;52474;52.236;5.114;2023-07-22T05:39:05;101364.06;;;14.55;100.00
59170;BME280;52474;52.236;5.114;2023-07-22T05:41:33;101367.41;;;14.67;100.00
59170;BME280;52474;52.236;5.114;2023-07-22T05:43:59;101363.00;;;14.76;100.00
59170;BME280;52474;52.236;5.114;2023-07-22T05:46:24;101365.81;;;14.84;100.00
59170;BME280;52474;52.236;5.114;2023-07-22T05:48:50;101366.22;;;14.89;100.00
59170;BME280;52474;52.236;5.114;2023-07-22T05:51:17;101369.81;;;14.98;100.00
59170;BME280;52474;52.236;5.114;2023-07-22T05:53:43;101339.06;;;14.94;100.00
59170;BME280;52474;52.236;5.114;2023-07-22T05:56:09;101359.78;;;15.10;100.00
59170;BME280;52474;52.236;5.114;2023-07-22T05:58:35;101356.00;;;15.12;100.00
59170;BME280;52474;52.236;5.114;2023-07-22T06:01:00;101339.16;;;15.12;100.00
59170;BME280;52474;52.236;5.114;2023-07-22T06:03:26;101331.53;;;15.17;100.00
59170;BME280;52474;52.236;5.114;2023-07-22T06:05:52;101354.06;;;15.32;100.00
59170;BME280;52474;52.236;5.114;2023-07-22T06:08:17;101359.47;;;15.40;100.00
59170;BME280;52474;52.236;5.114;2023-07-22T06:10:43;101350.63;;;15.40;100.00
59170;BME280;52474;52.236;5.114;2023-07-22T06:13:09;101350.88;;;15.46;100.00
59170;BME280;52474;52.236;5.114;2023-07-22T06:15:35;101345.63;;;15.55;100.00
59170;BME280;52474;52.236;5.114;2023-07-22T06:18:00;101318.59;;;15.40;100.00
59170;BME280;52474;52.236;5.114;2023-07-22T06:20:27;101357.63;;;15.68;100.00
59170;BME280;52474;52.236;5.114;2023-07-22T06:22:52;101352.94;;;15.80;100.00
59170;BME280;52474;52.236;5.114;2023-07-22T06:25:18;101328.19;;;15.78;100.00
59170;BME280;52474;52.236;5.114;2023-07-22T06:27:44;101349.31;;;15.89;100.00
59170;BME280;52474;52.236;5.114;2023-07-22T06:30:09;101343.19;;;15.97;100.00
59170;BME280;52474;52.236;5.114;2023-07-22T06:32:37;101343.81;;;16.09;100.00
59170;BME280;52474;52.236;5.114;2023-07-22T06:35:03;101344.25;;;16.22;100.00
59170;BME280;52474;52.236;5.114;2023-07-22T06:37:29;101340.22;;;16.18;100.00
59170;BME280;52474;52.236;5.114;2023-07-22T06:39:55;101321.19;;;16.21;100.00
59170;BME280;52474;52.236;5.114;2023-07-22T06:42:21;101334.81;;;16.36;100.00
59170;BME280;52474;52.236;5.114;2023-07-22T06:44:47;101345.41;;;16.46;100.00
59170;BME280;52474;52.236;5.114;2023-07-22T06:47:13;101324.19;;;16.44;100.00
59170;BME280;52474;52.236;5.114;2023-07-22T06:49:40;101332.03;;;16.46;100.00
59170;BME280;52474;52.236;5.114;2023-07-22T06:52:07;101339.13;;;16.55;100.00
59170;BME280;52474;52.236;5.114;2023-07-22T06:54:33;101328.44;;;16.55;100.00
59170;BME280;52474;52.236;5.114;2023-07-22T06:56:59;101337.50;;;16.62;100.00
59170;BME280;52474;52.236;5.114;2023-07-22T06:59:25;101312.75;;;16.60;100.00
59170;BME280;52474;52.236;5.114;2023-07-22T07:01:52;101318.47;;;16.73;100.00
59170;BME280;52474;52.236;5.114;2023-07-22T07:04:18;101322.19;;;17.07;100.00
59170;BME280;52474;52.236;5.114;2023-07-22T07:06:43;101324.63;;;17.51;100.00
59170;BME280;52474;52.236;5.114;2023-07-22T07:09:11;101327.66;;;17.56;100.00
59170;BME280;52474;52.236;5.114;2023-07-22T07:11:37;101316.75;;;17.49;100.00
59170;BME280;52474;52.236;5.114;2023-07-22T07:14:03;101321.00;;;18.01;100.00
59170;BME280;52474;52.236;5.114;2023-07-22T07:16:30;101334.09;;;17.88;100.00
59170;BME280;52474;52.236;5.114;2023-07-22T07:19:00;101334.44;;;17.85;100.00
59170;BME280;52474;52.236;5.114;2023-07-22T07:21:27;101322.19;;;17.98;100.00
59170;BME280;52474;52.236;5.114;2023-07-22T07:23:54;101323.53;;;17.94;100.00
59170;BME280;52474;52.236;5.114;2023-07-22T07:26:21;101324.34;;;17.87;100.00
59170;BME280;52474;52.236;5.114;2023-07-22T07:28:48;101332.03;;;17.73;100.00
59170;BME280;52474;52.236;5.114;2023-07-22T07:31:14;101329.34;;;17.65;100.00
59170;BME280;52474;52.236;5.114;2023-07-22T07:33:40;101323.47;;;17.62;100.00
59170;BME280;52474;52.236;5.114;2023-07-22T07:36:06;101332.00;;;17.57;100.00
59170;BME280;52474;52.236;5.114;2023-07-22T07:38:32;101330.19;;;17.74;100.00
59170;BME280;52474;52.236;5.114;2023-07-22T07:40:59;101339.25;;;17.73;100.00
59170;BME280;52474;52.236;5.114;2023-07-22T07:43:26;101340.63;;;17.85;100.00
59170;BME280;52474;52.236;5.114;2023-07-22T07:48:45;101324.19;;;17.88;100.00
59170;BME280;52474;52.236;5.114;2023-07-22T07:51:13;101320.84;;;18.11;100.00
59170;BME280;52474;52.236;5.114;2023-07-22T07:53:40;101304.44;;;18.06;100.00
59170;BME280;52474;52.236;5.114;2023-07-22T07:56:08;101326.19;;;18.43;100.00
59170;BME280;52474;52.236;5.114;2023-07-22T07:58:34;101317.00;;;19.25;100.00
59170;BME280;52474;52.236;5.114;2023-07-22T08:01:00;101314.59;;;18.99;100.00
59170;BME280;52474;52.236;5.114;2023-07-22T08:03:25;101314.44;;;19.00;100.00
59170;BME280;52474;52.236;5.114;2023-07-22T08:05:51;101316.22;;;19.39;100.00
59170;BME280;52474;52.236;5.114;2023-07-22T08:08:17;101283.44;;;18.90;100.00
59170;BME280;52474;52.236;5.114;2023-07-22T08:10:43;101305.38;;;19.01;100.00
59170;BME280;52474;52.236;5.114;2023-07-22T08:13:10;101309.03;;;19.08;100.00
59170;BME280;52474;52.236;5.114;2023-07-22T08:15:36;101280.69;;;19.37;100.00
59170;BME280;52474;52.236;5.114;2023-07-22T08:18:02;101306.97;;;19.96;100.00
59170;BME280;52474;52.236;5.114;2023-07-22T08:20:29;101300.22;;;20.15;100.00
59170;BME280;52474;52.236;5.114;2023-07-22T08:22:56;101297.81;;;19.82;100.00
59170;BME280;52474;52.236;5.114;2023-07-22T08:25:22;101298.28;;;19.86;100.00
59170;BME280;52474;52.236;5.114;2023-07-22T08:27:47;101296.09;;;19.89;100.00
59170;BME280;52474;52.236;5.114;2023-07-22T08:30:13;101291.25;;;19.85;100.00
59170;BME280;52474;52.236;5.114;2023-07-22T08:32:39;101302.34;;;19.59;100.00
59170;BME280;52474;52.236;5.114;2023-07-22T08:35:05;101305.69;;;19.61;100.00
59170;BME280;52474;52.236;5.114;2023-07-22T08:37:32;101285.00;;;19.61;100.00
59170;BME280;52474;52.236;5.114;2023-07-22T08:39:58;101298.00;;;19.81;100.00
59170;BME280;52474;52.236;5.114;2023-07-22T08:42:25;101280.41;;;19.93;100.00
59170;BME280;52474;52.236;5.114;2023-07-22T08:44:56;101280.00;;;20.04;100.00
59170;BME280;52474;52.236;5.114;2023-07-22T08:47:28;101290.41;;;20.22;100.00
59170;BME280;52474;52.236;5.114;2023-07-22T08:49:57;101289.88;;;19.89;100.00
59170;BME280;52474;52.236;5.114;2023-07-22T08:52:25;101287.00;;;19.90;100.00
59170;BME280;52474;52.236;5.114;2023-07-22T08:54:51;101278.34;;;19.57;100.00
59170;BME280;52474;52.236;5.114;2023-07-22T08:57:18;101299.34;;;19.53;100.00
59170;BME280;52474;52.236;5.114;2023-07-22T08:59:44;101286.06;;;19.37;100.00
59170;BME280;52474;52.236;5.114;2023-07-22T09:02:12;101292.41;;;19.13;100.00
59170;BME280;52474;52.236;5.114;2023-07-22T09:04:41;101295.09;;;19.13;100.00
59170;BME280;52474;52.236;5.114;2023-07-22T09:07:08;101294.72;;;19.16;100.00
59170;BME280;52474;52.236;5.114;2023-07-22T09:09:34;101292.09;;;19.08;100.00
59170;BME280;52474;52.236;5.114;2023-07-22T09:12:01;101304.63;;;19.16;100.00
59170;BME280;52474;52.236;5.114;2023-07-22T09:14:27;101299.88;;;19.26;100.00
59170;BME280;52474;52.236;5.114;2023-07-22T09:16:53;101297.09;;;19.11;100.00
59170;BME280;52474;52.236;5.114;2023-07-22T09:19:19;101303.56;;;18.94;100.00
59170;BME280;52474;52.236;5.114;2023-07-22T09:21:45;101302.13;;;18.83;100.00
59170;BME280;52474;52.236;5.114;2023-07-22T09:24:26;101303.47;;;18.62;100.00
59170;BME280;52474;52.236;5.114;2023-07-22T09:26:54;101301.31;;;18.58;100.00
59170;BME280;52474;52.236;5.114;2023-07-22T09:29:38;101303.88;;;18.43;100.00
59170;BME280;52474;52.236;5.114;2023-07-22T09:32:09;101305.44;;;18.13;100.00
59170;BME280;52474;52.236;5.114;2023-07-22T09:34:35;101294.56;;;18.14;100.00
59170;BME280;52474;52.236;5.114;2023-07-22T09:37:01;101305.44;;;18.13;100.00
59170;BME280;52474;52.236;5.114;2023-07-22T09:39:29;101306.59;;;18.18;100.00
59170;BME280;52474;52.236;5.114;2023-07-22T09:41:55;101315.13;;;18.14;100.00
59170;BME280;52474;52.236;5.114;2023-07-22T09:44:30;101290.88;;;17.83;100.00
59170;BME280;52474;52.236;5.114;2023-07-22T09:46:56;101319.53;;;17.82;100.00
59170;BME280;52474;52.236;5.114;2023-07-22T09:49:21;101315.84;;;17.83;100.00
59170;BME280;52474;52.236;5.114;2023-07-22T09:51:47;101331.22;;;17.81;100.00
59170;BME280;52474;52.236;5.114;2023-07-22T09:54:16;101319.81;;;17.63;100.00
59170;BME280;52474;52.236;5.114;2023-07-22T09:56:45;101322.16;;;17.57;100.00
59170;BME280;52474;52.236;5.114;2023-07-22T09:59:11;101325.31;;;17.61;100.00
59170;BME280;52474;52.236;5.114;2023-07-22T10:01:40;101322.63;;;17.69;100.00
59170;BME280;52474;52.236;5.114;2023-07-22T10:04:07;101316.94;;;17.56;100.00
59170;BME280;52474;52.236;5.114;2023-07-22T10:06:34;101314.13;;;17.57;100.00
59170;BME280;52474;52.236;5.114;2023-07-22T10:09:03;101313.09;;;17.50;100.00
59170;BME280;52474;52.236;5.114;2023-07-22T10:11:33;101315.72;;;17.34;100.00
59170;BME280;52474;52.236;5.114;2023-07-22T10:14:01;101303.84;;;17.36;100.00
59170;BME280;52474;52.236;5.114;2023-07-22T10:16:27;101290.81;;;17.33;100.00
59170;BME280;52474;52.236;5.114;2023-07-22T10:18:53;101320.94;;;17.35;100.00
59170;BME280;52474;52.236;5.114;2023-07-22T10:21:19;101316.56;;;17.34;100.00
59170;BME280;52474;52.236;5.114;2023-07-22T10:23:47;101303.50;;;17.31;100.00
59170;BME280;52474;52.236;5.114;2023-07-22T10:26:15;101321.75;;;17.28;100.00
59170;BME280;52474;52.236;5.114;2023-07-22T10:28:43;101329.78;;;17.28;100.00
59170;BME280;52474;52.236;5.114;2023-07-22T10:31:09;101334.97;;;17.29;100.00
59170;BME280;52474;52.236;5.114;2023-07-22T10:33:35;101345.78;;;17.11;100.00
59170;BME280;52474;52.236;5.114;2023-07-22T10:36:04;101359.97;;;17.04;100.00
59170;BME280;52474;52.236;5.114;2023-07-22T10:38:30;101356.22;;;16.62;100.00
59170;BME280;52474;52.236;5.114;2023-07-22T10:40:56;101366.16;;;16.26;100.00
59170;BME280;52474;52.236;5.114;2023-07-22T10:43:32;101374.88;;;16.10;100.00
59170;BME280;52474;52.236;5.114;2023-07-22T10:46:12;101356.81;;;15.86;100.00
59170;BME280;52474;52.236;5.114;2023-07-22T10:48:41;101362.91;;;15.78;100.00
59170;BME280;52474;52.236;5.114;2023-07-22T10:51:11;101353.22;;;15.77;100.00
59170;BME280;52474;52.236;5.114;2023-07-22T10:53:46;101367.34;;;15.87;100.00
59170;BME280;52474;52.236;5.114;2023-07-22T10:56:15;101363.88;;;15.77;100.00
59170;BME280;52474;52.236;5.114;2023-07-22T11:14:25;101336.09;;;15.52;100.00
59170;BME280;52474;52.236;5.114;2023-07-22T11:16:52;101321.91;;;15.52;100.00
59170;BME280;52474;52.236;5.114;2023-07-22T11:19:22;101349.38;;;15.80;100.00
59170;BME280;52474;52.236;5.114;2023-07-22T11:21:52;101351.22;;;15.97;100.00
59170;BME280;52474;52.236;5.114;2023-07-22T11:24:19;101342.81;;;15.92;100.00
59170;BME280;52474;52.236;5.114;2023-07-22T11:26:46;101328.56;;;16.01;100.00
59170;BME280;52474;52.236;5.114;2023-07-22T11:29:13;101328.47;;;16.11;100.00
59170;BME280;52474;52.236;5.114;2023-07-22T11:31:44;101331.44;;;16.34;100.00
59170;BME280;52474;52.236;5.114;2023-07-22T11:34:13;101276.78;;;16.28;100.00
59170;BME280;52474;52.236;5.114;2023-07-22T11:36:39;101291.69;;;16.91;100.00
59170;BME280;52474;52.236;5.114;2023-07-22T11:39:07;101278.72;;;17.21;100.00
59170;BME280;52474;52.236;5.114;2023-07-22T11:41:34;101290.16;;;17.48;100.00
59170;BME280;52474;52.236;5.114;2023-07-22T11:44:01;101306.94;;;18.15;100.00
59170;BME280;52474;52.236;5.114;2023-07-22T11:46:28;101241.28;;;18.03;100.00
59170;BME280;52474;52.236;5.114;2023-07-22T11:48:55;101278.41;;;18.39;100.00
59170;BME280;52474;52.236;5.114;2023-07-22T11:51:23;101290.56;;;18.58;100.00
59170;BME280;52474;52.236;5.114;2023-07-22T11:53:51;101289.50;;;18.75;100.00
59170;BME280;52474;52.236;5.114;2023-07-22T11:56:21;101292.66;;;18.95;100.00
59170;BME280;52474;52.236;5.114;2023-07-22T11:58:55;101290.59;;;19.05;100.00
59170;BME280;52474;52.236;5.114;2023-07-22T12:01:23;101287.06;;;19.05;100.00
59170;BME280;52474;52.236;5.114;2023-07-22T12:03:55;101273.72;;;18.88;100.00
59170;BME280;52474;52.236;5.114;2023-07-22T12:06:25;101295.97;;;18.97;100.00
59170;BME280;52474;52.236;5.114;2023-07-22T12:08:51;101277.94;;;18.75;100.00
59170;BME280;52474;52.236;5.114;2023-07-22T12:11:22;101291.72;;;18.72;100.00
59170;BME280;52474;52.236;5.114;2023-07-22T12:14:11;101286.34;;;18.72;100.00
59170;BME280;52474;52.236;5.114;2023-07-22T12:16:39;101273.81;;;18.64;100.00
59170;BME280;52474;52.236;5.114;2023-07-22T12:19:06;101273.94;;;18.79;100.00
59170;BME280;52474;52.236;5.114;2023-07-22T12:21:32;101282.63;;;18.89;100.00
59170;BME280;52474;52.236;5.114;2023-07-22T12:23:58;101287.31;;;18.95;100.00
59170;BME280;52474;52.236;5.114;2023-07-22T12:26:25;101270.59;;;18.77;100.00
59170;BME280;52474;52.236;5.114;2023-07-22T12:28:50;101276.97;;;18.76;100.00
59170;BME280;52474;52.236;5.114;2023-07-22T12:31:16;101277.09;;;18.82;100.00
59170;BME280;52474;52.236;5.114;2023-07-22T12:33:42;101261.50;;;18.86;100.00
59170;BME280;52474;52.236;5.114;2023-07-22T12:36:08;101282.53;;;19.05;100.00
59170;BME280;52474;52.236;5.114;2023-07-22T12:38:34;101276.94;;;18.84;100.00
59170;BME280;52474;52.236;5.114;2023-07-22T12:41:00;101270.75;;;18.67;100.00
59170;BME280;52474;52.236;5.114;2023-07-22T12:43:26;101260.88;;;18.76;100.00
59170;BME280;52474;52.236;5.114;2023-07-22T12:45:52;101278.91;;;18.90;100.00
59170;BME280;52474;52.236;5.114;2023-07-22T12:48:18;101291.53;;;18.81;100.00
59170;BME280;52474;52.236;5.114;2023-07-22T12:50:44;101268.97;;;18.59;100.00
59170;BME280;52474;52.236;5.114;2023-07-22T12:53:10;101290.25;;;18.61;100.00
59170;BME280;52474;52.236;5.114;2023-07-22T12:55:37;101286.38;;;18.63;100.00
59170;BME280;52474;52.236;5.114;2023-07-22T12:58:03;101260.44;;;18.48;100.00